Terminal Aerodrome Forecast
Issued by NWS

Current Version | Previous Version | Text Only | Print | Product List | Glossary On
Versions: 1 2 3 4 5 6 7 8 9 10 11 12
000
FTUS45 KTFX 261134
TAFGTF
TAF
KGTF 261134Z 2612/2712 18009KT P6SM FEW060 SCT200
     FM261700 23011G18KT P6SM SCT080 BKN150
     FM262300 26010KT P6SM SCT050 BKN080 PROB30 2708/2712 -SHRA
      SCT020 BKN040=

USA.gov is the U.S. government's official web portal to all federal, state and local government web resources and services.